マドリード・バラハス国際空港の過去48時間の天気

マドリード・バラハス国際空港 (Madrid / Barajas)

現在時刻: 1/24 13:20 CET (1/24 12:20 UTC) 以下の時間は現地時間です。

過去48時間のMETAR気象情報
時間 風向 風速(m/s) 視程 気温(℃) 湿度(%) 気圧(hPa) 天気現象
24 13:00 南南東 3 10km以上 8 87 1021
24 12:30 南南東 3 9000m 7 87 1021
24 12:00 不定 1 9000m 7 93 1021 弱い霧雨
24 11:30 不定 1 9000m 7 93 1021 弱い霧雨
24 11:00 南東 2 9000m 7 93 1021
24 10:30 南東 2 9000m 6 93 1021 弱い雨
24 10:00 南東 2 10km以上 6 93 1021 弱い雨
24 09:30 南南東 4 10km以上 7 87 1021 弱い雨
24 09:00 南東 2 10km以上 6 93 1020 弱い雨
24 08:30 南南東 3 10km以上 7 87 1020 弱い雨
24 08:00 南東 2 10km以上 7 87 1020 弱い雨
24 07:30 東南東 2 10km以上 7 87 1020 弱い霧雨
24 07:00 不定 1 10km以上 7 87 1019
24 06:30 不定 1 10km以上 7 87 1019
24 06:00 不定 1 10km以上 7 87 1019
24 05:30 不定 1 10km以上 7 87 1019
24 05:00 2 10km以上 7 87 1019
24 04:30 不定 1 10km以上 7 87 1019
24 04:00 2 10km以上 7 87 1019
24 03:30 不定 1 10km以上 7 87 1019
24 03:00 不定 1 10km以上 7 87 1019
24 02:30 不定 1 10km以上 7 87 1019
24 02:00 不定 1 10km以上 7 87 1020
24 01:30 不定 1 10km以上 7 87 1020
24 01:00 東南東 2 10km以上 8 81 1020
24 00:30 不定 1 10km以上 8 81 1020
24 00:00 不定 1 10km以上 7 87 1020
23 23:30 不定 1 10km以上 7 87 1020
23 23:00 不定 1 10km以上 8 81 1020
23 22:30 不定 1 10km以上 7 81 1020
23 22:00 不定 1 10km以上 8 76 1019
23 21:30 不定 1 10km以上 8 76 1019
23 21:00 東南東 2 10km以上 8 76 1019
23 20:30 不定 1 10km以上 8 76 1019
LEMD 241200Z 15005KT 110V190 9999 BKN015 08/06 Q1021 R88/19//95 NOSIG
LEMD 241130Z 15005KT 080V170 9000 SCT012 OVC022 07/05 Q1021 R88/19//95 NOSIG
LEMD 241100Z VRB02KT 9000 -DZ SCT012 OVC022 07/06 Q1021 R88/19//95 NOSIG
LEMD 241030Z VRB02KT 9000 -DZ OVC025 07/06 Q1021 R88/19//95 NOSIG
LEMD 241000Z 14004KT 100V200 9000 SCT015 BKN029 07/06 Q1021 R88/19//95 NOSIG
LEMD 240930Z 13004KT 080V160 9000 -RA SCT015 BKN029 06/05 Q1021 R88/19//95 NOSIG
LEMD 240900Z 13004KT 080V160 9999 -RA SCT015 BKN029 06/05 Q1021 R88/19//95 NOSIG
LEMD 240830Z 15007KT 9999 -RA SCT015 BKN029 07/05 Q1021 R88/19//95 NOSIG
LEMD 240800Z 13004KT 110V180 9999 -RA SCT018 BKN027 06/05 Q1020 NOSIG
LEMD 240730Z 15006KT 120V180 9999 -RA BKN020 SCT030 07/05 Q1020 NOSIG
LEMD 240700Z 13004KT 100V160 9999 -RA FEW020 BKN030 07/05 Q1020 NOSIG
LEMD 240630Z 12003KT 070V160 9999 -DZ SCT021 SCT030 07/05 Q1020 NOSIG
LEMD 240600Z VRB02KT 9999 BKN021 07/05 Q1019 NOSIG
LEMD 240530Z VRB02KT 9999 BKN023 07/05 Q1019 NOSIG
LEMD 240500Z VRB01KT 9999 BKN023 07/05 Q1019 NOSIG
LEMD 240430Z VRB02KT 9999 SCT021 BKN060 07/05 Q1019 NOSIG
LEMD 240400Z 35003KT 320V020 9999 SCT021 BKN060 07/05 Q1019 NOSIG
LEMD 240330Z VRB02KT 9999 SCT021 BKN060 07/05 Q1019 NOSIG
LEMD 240300Z 36003KT 9999 SCT021 BKN060 07/05 Q1019 NOSIG
LEMD 240230Z VRB01KT 9999 SCT021 BKN060 07/05 Q1019 NOSIG
LEMD 240200Z VRB02KT 9999 SCT050 07/05 Q1019 NOSIG
LEMD 240130Z VRB02KT 9999 SCT050 07/05 Q1019 NOSIG
LEMD 240100Z VRB02KT 9999 SCT050 07/05 Q1020 NOSIG
LEMD 240030Z VRB01KT 9999 SCT050 07/05 Q1020 NOSIG
LEMD 240000Z 11003KT 070V170 9999 SCT050 BKN080 08/05 Q1020 NOSIG
LEMD 232330Z VRB01KT 9999 SCT050 BKN080 08/05 Q1020 NOSIG
LEMD 232300Z VRB02KT 9999 SCT050 BKN080 07/05 Q1020 NOSIG
LEMD 232230Z VRB02KT 9999 SCT060 BKN080 07/05 Q1020 NOSIG
LEMD 232200Z VRB02KT 9999 SCT060 BKN080 08/05 Q1020 NOSIG
LEMD 232130Z VRB01KT 9999 FEW054 BKN080 07/04 Q1020 NOSIG
LEMD 232100Z VRB02KT 9999 FEW058 BKN075 08/04 Q1019 NOSIG
LEMD 232030Z VRB01KT 9999 BKN065 08/04 Q1019 NOSIG
LEMD 232000Z 11003KT 070V160 9999 SCT039 BKN059 08/04 Q1019 NOSIG
LEMD 231930Z VRB02KT 9999 SCT030 SCT048 08/04 Q1019 NOSIG